Hollinger, Nebraska
Current Conditions -  °F | °C
As of 10:55 AM on Monday 22 Dec 2014 (Local Time) from KHDE Reporting Station
Scattered Clouds Scattered Clouds  
Wind Chill: 38°   Ceiling: Unl
Heat Index: 44°   Visibility: 10mi
Dew Point: 36°   Wind: 12mph
Humidity: 73%   Direction: 290°WNW
Pressure: 29.56"   Gusts: 18mph
Location:  40.2849°N, 99.6171°W
Report Text: KHDE 221655Z AUTO 29010G16KT 10SM SCT090 07/02 A2956 RMK AO2 T00650020
Loading
Personal Weather Stations






























Interactive Weather Map New forecast layout! Learn more

10-Day Weather Forecast

Advertisements
Track Severe Weather on mobile